createdAt,value
2018-10-03T00:00:37.931Z,1009.99
2018-10-03T00:01:18.518Z,1009.98
2018-10-03T00:01:58.893Z,1010
2018-10-03T00:02:39.246Z,1010.01
2018-10-03T00:03:19.678Z,1009.98
2018-10-03T00:04:00.076Z,1010.02
2018-10-03T00:04:40.463Z,1010.04
2018-10-03T00:05:20.889Z,1010.05
2018-10-03T00:06:01.332Z,1010
2018-10-03T00:06:41.780Z,1010.01
2018-10-03T00:07:22.403Z,1009.99
2018-10-03T00:08:02.686Z,1010.01
2018-10-03T00:08:43.066Z,1009.96
2018-10-03T00:09:23.448Z,1009.99
2018-10-03T00:10:03.917Z,1010.01
2018-10-03T00:10:44.375Z,1010.01
2018-10-03T00:11:24.738Z,1010.06
2018-10-03T00:12:05.179Z,1010.1
2018-10-03T00:12:45.594Z,1010.18
2018-10-03T00:13:25.997Z,1010.17
2018-10-03T00:14:06.463Z,1010.15
2018-10-03T00:14:46.815Z,1010.24
2018-10-03T00:15:27.431Z,1010.24
2018-10-03T00:16:07.844Z,1010.22
2018-10-03T00:16:48.447Z,1010.2
2018-10-03T00:17:28.842Z,1010.23
2018-10-03T00:18:09.230Z,1010.21
2018-10-03T00:18:49.703Z,1010.26
2018-10-03T00:19:30.602Z,1010.22
2018-10-03T00:20:10.931Z,1010.25
2018-10-03T00:20:51.400Z,1010.25
2018-10-03T00:21:31.769Z,1010.19
2018-10-03T00:22:12.572Z,1010.25
2018-10-03T00:22:52.739Z,1010.21
2018-10-03T00:23:33.151Z,1010.22
2018-10-03T00:24:13.612Z,1010.22
2018-10-03T00:24:54.011Z,1010.28
2018-10-03T00:25:34.442Z,1010.31
2018-10-03T00:26:14.835Z,1010.39
2018-10-03T00:26:55.272Z,1010.43
2018-10-03T00:27:35.765Z,1010.52
2018-10-03T00:28:16.197Z,1010.48
2018-10-03T00:28:56.623Z,1010.48
2018-10-03T00:29:37.011Z,1010.47
2018-10-03T00:30:17.404Z,1010.4
2018-10-03T00:30:58.231Z,1010.41
2018-10-03T00:31:38.956Z,1010.39
2018-10-03T00:32:19.537Z,1010.4
2018-10-03T00:33:00.199Z,1010.45
2018-10-03T00:33:40.511Z,1010.42
2018-10-03T00:34:20.850Z,1010.39
2018-10-03T00:35:01.423Z,1010.37
2018-10-03T00:35:41.743Z,1010.39
2018-10-03T00:36:22.162Z,1010.4
2018-10-03T00:37:02.511Z,1010.4
2018-10-03T00:37:43.239Z,1010.41
2018-10-03T00:38:23.636Z,1010.4
2018-10-03T00:39:04.129Z,1010.39
2018-10-03T00:39:44.518Z,1010.38
2018-10-03T00:40:25.279Z,1010.34
2018-10-03T00:41:05.479Z,1010.38
2018-10-03T00:41:46.063Z,1010.42
2018-10-03T00:42:26.559Z,1010.43
2018-10-03T00:43:06.914Z,1010.44
2018-10-03T00:43:47.301Z,1010.42
2018-10-03T00:44:27.698Z,1010.48
2018-10-03T00:45:08.118Z,1010.45
2018-10-03T00:45:48.614Z,1010.48
2018-10-03T00:46:28.963Z,1010.5
2018-10-03T00:47:09.404Z,1010.49
2018-10-03T00:47:49.758Z,1010.49
2018-10-03T00:48:30.192Z,1010.46
2018-10-03T00:49:10.684Z,1010.5
2018-10-03T00:49:51.858Z,1010.51
2018-10-03T00:50:32.299Z,1010.54
2018-10-03T00:51:12.719Z,1010.46
2018-10-03T00:51:53.110Z,1010.6
2018-10-03T00:52:33.594Z,1010.56
2018-10-03T00:53:13.971Z,1010.59
2018-10-03T00:53:54.384Z,1010.58
2018-10-03T00:54:34.853Z,1010.55
2018-10-03T00:55:15.211Z,1010.5
2018-10-03T00:55:55.601Z,1010.49
2018-10-03T00:56:36.086Z,1010.56
2018-10-03T00:57:16.413Z,1010.56
2018-10-03T00:57:56.939Z,1010.52
2018-10-03T00:58:37.281Z,1010.49
2018-10-03T00:59:17.681Z,1010.55
2018-10-03T00:59:58.119Z,1010.54
2018-10-03T01:00:38.487Z,1010.53
2018-10-03T01:02:31.485Z,1010.52
2018-10-03T01:03:11.730Z,1010.52
2018-10-03T01:03:52.331Z,1010.52
2018-10-03T01:04:32.648Z,1010.53
2018-10-03T01:05:12.969Z,1010.53
2018-10-03T01:05:53.403Z,1010.51
2018-10-03T01:06:33.774Z,1010.56
2018-10-03T01:07:14.169Z,1010.56
2018-10-03T01:07:54.604Z,1010.57
2018-10-03T01:08:34.947Z,1010.56
2018-10-03T01:09:15.413Z,1010.63
2018-10-03T01:09:55.817Z,1010.63
2018-10-03T01:10:36.219Z,1010.65
2018-10-03T01:11:16.615Z,1010.7
2018-10-03T01:11:56.977Z,1010.72
2018-10-03T01:12:37.368Z,1010.73
2018-10-03T01:13:17.827Z,1010.74
2018-10-03T01:13:58.270Z,1010.7
2018-10-03T01:14:38.691Z,1010.74
2018-10-03T01:15:19.193Z,1010.74
2018-10-03T01:15:59.645Z,1010.67
2018-10-03T01:16:40.042Z,1010.71
2018-10-03T01:17:20.406Z,1010.68
2018-10-03T01:18:00.844Z,1010.64
2018-10-03T01:18:41.262Z,1010.67
2018-10-03T01:19:21.617Z,1010.7
2018-10-03T01:20:01.999Z,1010.68
2018-10-03T01:20:42.775Z,1010.69
2018-10-03T01:21:23.191Z,1010.73
2018-10-03T01:22:03.437Z,1010.72
2018-10-03T01:22:43.817Z,1010.63
2018-10-03T01:23:24.227Z,1010.68
2018-10-03T01:24:04.876Z,1010.72
2018-10-03T01:24:45.267Z,1010.72
2018-10-03T01:25:25.708Z,1010.75
2018-10-03T01:26:06.128Z,1010.77
2018-10-03T01:26:46.595Z,1010.77
2018-10-03T01:27:26.983Z,1010.81
2018-10-03T01:28:07.403Z,1010.76
2018-10-03T01:28:48.319Z,1010.77
2018-10-03T01:29:28.724Z,1010.76
2018-10-03T01:30:09.230Z,1010.77
2018-10-03T01:30:49.558Z,1010.74
2018-10-03T01:31:29.950Z,1010.74
2018-10-03T01:32:10.358Z,1010.74
2018-10-03T01:32:50.752Z,1010.77
2018-10-03T01:33:31.315Z,1010.77
2018-10-03T01:34:11.560Z,1010.78
2018-10-03T01:34:51.999Z,1010.8
2018-10-03T01:35:32.407Z,1010.77
2018-10-03T01:36:12.866Z,1010.77
2018-10-03T01:36:53.186Z,1010.78
2018-10-03T01:37:33.761Z,1010.81
2018-10-03T01:38:14.162Z,1010.81
2018-10-03T01:38:55.245Z,1010.88
2018-10-03T01:39:35.285Z,1010.81
2018-10-03T01:40:15.800Z,1010.89
2018-10-03T01:40:56.196Z,1010.88
2018-10-03T01:41:36.657Z,1010.86
2018-10-03T01:42:17.085Z,1010.78
2018-10-03T01:42:57.553Z,1010.82
2018-10-03T01:43:37.995Z,1010.81
2018-10-03T01:44:18.282Z,1010.83
2018-10-03T01:44:58.792Z,1010.86
2018-10-03T01:45:39.090Z,1010.83
2018-10-03T01:46:19.996Z,1010.86
2018-10-03T01:47:00.365Z,1010.86
2018-10-03T01:47:40.780Z,1010.91
2018-10-03T01:48:21.364Z,1010.85
2018-10-03T01:49:01.719Z,1010.91
2018-10-03T01:49:42.119Z,1010.89
2018-10-03T01:50:22.536Z,1010.83
2018-10-03T01:51:02.949Z,1010.86
2018-10-03T01:51:43.496Z,1010.88
2018-10-03T01:52:24.989Z,1010.88
2018-10-03T01:53:05.530Z,1010.88
2018-10-03T01:53:45.939Z,1010.87
2018-10-03T01:54:26.388Z,1010.86
2018-10-03T01:55:06.846Z,1010.87
2018-10-03T01:55:48.221Z,1010.89
2018-10-03T01:56:28.669Z,1010.79
2018-10-03T01:57:09.051Z,1010.85
2018-10-03T01:57:50.770Z,1010.85
2018-10-03T01:58:31.139Z,1010.84
2018-10-03T01:59:13.436Z,1010.86
2018-10-03T01:59:53.848Z,1010.81
2018-10-03T02:00:34.250Z,1010.85
2018-10-03T02:01:14.787Z,1010.86
2018-10-03T02:01:55.158Z,1010.86
2018-10-03T02:02:35.587Z,1010.84
2018-10-03T02:03:16.003Z,1010.84
2018-10-03T02:03:56.412Z,1010.81
2018-10-03T02:04:36.905Z,1010.76
2018-10-03T02:05:17.271Z,1010.8
2018-10-03T02:05:57.657Z,1010.78
2018-10-03T02:06:38.057Z,1010.81
2018-10-03T02:07:18.478Z,1010.86
2018-10-03T02:07:58.882Z,1010.88
2018-10-03T02:08:39.257Z,1010.88
2018-10-03T02:09:19.684Z,1010.88
2018-10-03T02:10:00.089Z,1010.92
2018-10-03T02:10:40.453Z,1010.92
2018-10-03T02:11:20.879Z,1010.88
2018-10-03T02:12:01.329Z,1010.85
2018-10-03T02:12:41.786Z,1010.84
2018-10-03T02:13:22.213Z,1010.89
2018-10-03T02:14:02.642Z,1010.85
2018-10-03T02:14:43.146Z,1010.85
2018-10-03T02:15:23.435Z,1010.83
2018-10-03T02:16:03.927Z,1010.85
2018-10-03T02:16:44.293Z,1010.83
2018-10-03T02:17:24.748Z,1010.85
2018-10-03T02:18:05.221Z,1010.87
2018-10-03T02:18:45.637Z,1010.87
2018-10-03T02:19:26.119Z,1010.88
2018-10-03T02:20:06.401Z,1010.91
2018-10-03T02:22:00.041Z,1010.91
2018-10-03T02:24:03.808Z,1010.92
2018-10-03T02:24:44.232Z,1010.93
2018-10-03T02:25:24.677Z,1010.95
2018-10-03T02:26:05.092Z,1011.02
2018-10-03T02:26:45.603Z,1011.01
2018-10-03T02:27:25.880Z,1011.03
2018-10-03T02:28:06.271Z,1011.01
2018-10-03T02:28:46.708Z,1011.03
2018-10-03T02:29:27.108Z,1011.04
2018-10-03T02:30:07.583Z,1010.99
2018-10-03T02:30:47.965Z,1010.95
2018-10-03T02:31:28.381Z,1010.97
2018-10-03T02:32:08.741Z,1010.98
2018-10-03T02:32:49.080Z,1010.95
2018-10-03T02:33:29.471Z,1010.96
2018-10-03T02:34:09.916Z,1010.95
2018-10-03T02:34:50.332Z,1010.93
2018-10-03T02:35:30.685Z,1010.93
2018-10-03T02:36:11.132Z,1010.97
2018-10-03T02:36:51.477Z,1010.99
2018-10-03T02:37:31.933Z,1011
2018-10-03T02:38:12.365Z,1011.05
2018-10-03T02:38:52.708Z,1011.07
2018-10-03T02:39:33.158Z,1011.1
2018-10-03T02:40:13.462Z,1011.09
2018-10-03T02:40:54.798Z,1011.08
2018-10-03T02:41:35.270Z,1011.07
2018-10-03T02:42:15.666Z,1011.07
2018-10-03T02:42:56.066Z,1011.08
2018-10-03T02:43:36.591Z,1011.1
2018-10-03T02:44:16.945Z,1011.12
2018-10-03T02:44:57.369Z,1011.11
2018-10-03T02:46:56.486Z,1011.12
2018-10-03T02:47:35.881Z,1011.15
2018-10-03T02:48:16.299Z,1011.11
2018-10-03T02:48:56.751Z,1011.1
2018-10-03T02:49:37.555Z,1011.12
2018-10-03T02:50:17.983Z,1011.12
2018-10-03T02:50:58.408Z,1011.14
2018-10-03T02:51:38.838Z,1011.21
2018-10-03T02:52:19.844Z,1011.18
2018-10-03T02:53:00.065Z,1011.09
2018-10-03T02:53:40.470Z,1011.16
2018-10-03T02:54:20.882Z,1011.09
2018-10-03T02:55:01.325Z,1011.16
2018-10-03T02:55:41.669Z,1011.14
2018-10-03T02:56:22.110Z,1011.25
2018-10-03T02:57:02.516Z,1011.15
2018-10-03T02:57:42.930Z,1011.11
2018-10-03T02:58:23.281Z,1011.21
2018-10-03T02:59:03.839Z,1011.19
2018-10-03T02:59:44.481Z,1011.24
2018-10-03T03:00:24.701Z,1011.23
2018-10-03T03:01:05.304Z,1011.24
2018-10-03T03:01:45.671Z,1011.27
2018-10-03T03:02:26.031Z,1011.3
2018-10-03T03:03:06.459Z,1011.34
2018-10-03T03:03:46.872Z,1011.36
2018-10-03T03:04:27.378Z,1011.38
2018-10-03T03:05:07.672Z,1011.33
2018-10-03T03:05:48.128Z,1011.41
2018-10-03T03:06:28.567Z,1011.42
2018-10-03T03:07:08.924Z,1011.41
2018-10-03T03:07:49.446Z,1011.45
2018-10-03T03:08:30.001Z,1011.45
2018-10-03T03:09:10.256Z,1011.44
2018-10-03T03:09:50.705Z,1011.46
2018-10-03T03:10:31.360Z,1011.49
2018-10-03T03:11:11.798Z,1011.52
2018-10-03T03:11:52.192Z,1011.51
2018-10-03T03:12:32.912Z,1011.43
2018-10-03T03:13:13.567Z,1011.45
2018-10-03T03:13:54.021Z,1011.53
2018-10-03T03:14:34.393Z,1011.51
2018-10-03T03:15:14.816Z,1011.52
2018-10-03T03:15:55.210Z,1011.55
2018-10-03T03:16:35.691Z,1011.56
2018-10-03T03:17:16.052Z,1011.6
2018-10-03T03:17:56.505Z,1011.57
2018-10-03T03:18:36.862Z,1011.55
2018-10-03T03:19:17.294Z,1011.58
2018-10-03T03:19:57.735Z,1011.59
2018-10-03T03:20:38.078Z,1011.63
2018-10-03T03:21:18.626Z,1011.56
2018-10-03T03:21:58.989Z,1011.59
2018-10-03T03:22:39.516Z,1011.62
2018-10-03T03:23:19.915Z,1011.67
2018-10-03T03:24:00.308Z,1011.65
2018-10-03T03:24:40.696Z,1011.66
2018-10-03T03:25:21.128Z,1011.65
2018-10-03T03:26:01.515Z,1011.66
2018-10-03T03:26:41.939Z,1011.71
2018-10-03T03:27:22.596Z,1011.66
2018-10-03T03:28:03.133Z,1011.62
2018-10-03T03:28:43.349Z,1011.76
2018-10-03T03:29:23.715Z,1011.75
2018-10-03T03:30:04.139Z,1011.76
2018-10-03T03:30:44.516Z,1011.77
2018-10-03T03:31:24.964Z,1011.76
2018-10-03T03:32:05.322Z,1011.8
2018-10-03T03:32:45.803Z,1011.77
2018-10-03T03:33:26.137Z,1011.77
2018-10-03T03:34:06.521Z,1011.79
2018-10-03T03:34:46.945Z,1011.78
2018-10-03T03:35:27.419Z,1011.8
2018-10-03T03:36:07.789Z,1011.87
2018-10-03T03:36:48.156Z,1011.81
2018-10-03T03:37:28.778Z,1011.83
2018-10-03T03:38:09.112Z,1011.68
2018-10-03T03:38:49.519Z,1011.81
2018-10-03T03:39:30.007Z,1011.81
2018-10-03T03:40:10.381Z,1011.83
2018-10-03T03:40:50.760Z,1011.82
2018-10-03T03:41:31.522Z,1011.76
2018-10-03T03:42:11.844Z,1011.81
2018-10-03T03:42:52.277Z,1011.8
2018-10-03T03:43:32.641Z,1011.82
2018-10-03T03:44:13.069Z,1011.84
2018-10-03T03:44:53.530Z,1011.83
2018-10-03T03:45:33.895Z,1011.84
2018-10-03T03:46:14.362Z,1011.86
2018-10-03T03:46:54.714Z,1011.83
2018-10-03T03:47:35.163Z,1011.81
2018-10-03T03:48:16.331Z,1011.87
2018-10-03T03:48:55.943Z,1011.84
2018-10-03T03:49:36.363Z,1011.82
2018-10-03T03:50:16.790Z,1011.8
2018-10-03T03:50:58.326Z,1011.69
2018-10-03T03:51:38.529Z,1011.8
2018-10-03T03:52:18.972Z,1011.83
2018-10-03T03:52:59.410Z,1011.81
2018-10-03T03:53:39.811Z,1011.81
2018-10-03T03:54:20.298Z,1011.85
2018-10-03T03:55:00.707Z,1011.87
2018-10-03T03:55:41.137Z,1011.84
2018-10-03T03:56:21.491Z,1011.86
2018-10-03T03:57:01.892Z,1011.82
2018-10-03T03:57:42.293Z,1011.85
2018-10-03T03:58:22.774Z,1011.85
2018-10-03T03:59:03.138Z,1011.85
2018-10-03T04:02:02.593Z,1011.81
2018-10-03T04:02:42.948Z,1011.81
2018-10-03T04:03:23.167Z,1011.81
2018-10-03T04:04:03.618Z,1011.81
2018-10-03T04:04:44.025Z,1011.84
2018-10-03T04:05:24.427Z,1011.82
2018-10-03T04:06:04.740Z,1011.83
2018-10-03T04:06:45.251Z,1011.77
2018-10-03T04:07:25.625Z,1011.79
2018-10-03T04:08:06.096Z,1011.78
2018-10-03T04:08:46.411Z,1011.83
2018-10-03T04:09:26.986Z,1011.83
2018-10-03T04:10:07.447Z,1011.84
2018-10-03T04:10:47.838Z,1011.85
2018-10-03T04:11:28.688Z,1011.89
2018-10-03T04:12:09.167Z,1011.9
2018-10-03T04:12:49.632Z,1011.92
2018-10-03T04:13:30.113Z,1011.92
2018-10-03T04:14:10.493Z,1011.98
2018-10-03T04:14:50.893Z,1011.96
2018-10-03T04:15:31.333Z,1012
2018-10-03T04:16:11.750Z,1012.01
2018-10-03T04:16:52.171Z,1012.01
2018-10-03T04:17:32.656Z,1012.03
2018-10-03T04:18:13.245Z,1012.04
2018-10-03T04:18:53.854Z,1012
2018-10-03T04:19:34.251Z,1012.04
2018-10-03T04:20:14.729Z,1011.98
2018-10-03T04:20:55.269Z,1012
2018-10-03T04:21:35.686Z,1012
2018-10-03T04:22:16.099Z,1012.04
2018-10-03T04:22:56.476Z,1012.04
2018-10-03T04:23:36.890Z,1012.01
2018-10-03T04:24:17.277Z,1012
2018-10-03T04:24:57.796Z,1012
2018-10-03T04:25:38.236Z,1012.05
2018-10-03T04:26:18.555Z,1012.04
2018-10-03T04:26:58.958Z,1012
2018-10-03T04:27:39.314Z,1011.99
2018-10-03T05:09:07.814Z,1012.51
2018-10-03T05:09:51.865Z,1012.48
2018-10-03T05:10:32.291Z,1012.5
2018-10-03T05:11:12.651Z,1012.55
2018-10-03T05:11:53.035Z,1012.55
2018-10-03T05:12:33.492Z,1012.55
2018-10-03T05:13:13.927Z,1012.54
2018-10-03T05:13:54.288Z,1012.61
2018-10-03T05:14:34.718Z,1012.58
2018-10-03T05:15:15.142Z,1012.6
2018-10-03T05:15:55.672Z,1012.64
2018-10-03T05:16:36.016Z,1012.56
2018-10-03T05:17:16.463Z,1012.59
2018-10-03T05:17:57.559Z,1012.64
2018-10-03T05:18:37.623Z,1012.67
2018-10-03T05:19:18.162Z,1012.68
2018-10-03T05:19:58.563Z,1012.71
2018-10-03T05:20:39.018Z,1012.75
2018-10-03T05:21:19.440Z,1012.74
2018-10-03T05:21:59.938Z,1012.73
2018-10-03T05:22:40.668Z,1012.83
2018-10-03T05:23:21.010Z,1012.8
2018-10-03T05:24:01.450Z,1012.8
2018-10-03T05:24:41.899Z,1012.83
2018-10-03T05:25:22.314Z,1012.84
2018-10-03T05:26:02.668Z,1012.82
2018-10-03T05:26:43.207Z,1012.85
2018-10-03T05:27:23.555Z,1012.85
2018-10-03T05:28:04.016Z,1012.85
2018-10-03T05:28:44.380Z,1012.88
2018-10-03T05:29:24.861Z,1012.86
2018-10-03T05:30:05.158Z,1012.85
2018-10-03T05:30:45.545Z,1012.88
2018-10-03T05:31:25.983Z,1012.89
2018-10-03T05:32:06.432Z,1012.87
2018-10-03T05:32:46.846Z,1012.95
2018-10-03T05:33:27.289Z,1012.97
2018-10-03T05:34:07.694Z,1012.98
2018-10-03T05:34:48.034Z,1012.96
2018-10-03T05:35:28.445Z,1012.93
2018-10-03T05:36:08.937Z,1013.01
2018-10-03T05:36:49.350Z,1013.01
2018-10-03T05:37:29.750Z,1012.93
2018-10-03T05:38:10.136Z,1012.98
2018-10-03T05:38:50.533Z,1012.98
2018-10-03T05:39:30.975Z,1013
2018-10-03T05:40:11.311Z,1012.99
2018-10-03T05:40:51.725Z,1012.97
2018-10-03T05:41:32.118Z,1012.95
2018-10-03T05:42:12.519Z,1012.98
2018-10-03T05:42:52.923Z,1013.02
2018-10-03T05:43:33.359Z,1012.99
2018-10-03T05:44:13.778Z,1013.05
2018-10-03T05:44:54.124Z,1013.02
2018-10-03T05:45:34.578Z,1013.11
2018-10-03T05:46:14.894Z,1013.08
2018-10-03T05:46:55.322Z,1013.11
2018-10-03T05:47:35.712Z,1013.15
2018-10-03T05:48:16.143Z,1013.14
2018-10-03T05:48:56.716Z,1013.13
2018-10-03T05:49:36.994Z,1013.14
2018-10-03T05:50:17.346Z,1013.17
2018-10-03T05:50:57.764Z,1013.21
2018-10-03T05:51:38.127Z,1013.2
2018-10-03T05:52:18.541Z,1013.22
2018-10-03T05:52:58.936Z,1013.25
2018-10-03T05:53:39.782Z,1013.24
2018-10-03T05:54:20.097Z,1013.18
2018-10-03T05:55:00.502Z,1013.27
2018-10-03T05:55:40.889Z,1013.28
2018-10-03T05:56:21.330Z,1013.31
2018-10-03T05:57:01.754Z,1013.3
2018-10-03T05:57:42.173Z,1013.29
2018-10-03T05:58:22.551Z,1013.32
2018-10-03T05:59:02.951Z,1013.31
2018-10-03T05:59:43.402Z,1013.31
2018-10-03T06:00:23.962Z,1013.34
2018-10-03T06:01:04.411Z,1013.33
2018-10-03T06:01:44.698Z,1013.3
2018-10-03T06:02:25.191Z,1013.38
2018-10-03T06:03:05.588Z,1013.35
2018-10-03T06:03:45.969Z,1013.35
2018-10-03T06:04:26.322Z,1013.37
2018-10-03T06:05:08.321Z,1013.37
2018-10-03T06:05:48.769Z,1013.4
2018-10-03T06:06:29.229Z,1013.38
2018-10-03T06:07:09.917Z,1013.32
2018-10-03T06:07:50.378Z,1013.36
2018-10-03T06:08:30.762Z,1013.35
2018-10-03T06:09:11.246Z,1013.32
2018-10-03T06:09:51.645Z,1013.33
2018-10-03T06:10:32.048Z,1013.37
2018-10-03T06:11:12.438Z,1013.38
2018-10-03T06:11:52.894Z,1013.38
2018-10-03T06:12:33.235Z,1013.34
2018-10-03T06:13:13.626Z,1013.39
2018-10-03T06:13:54.105Z,1013.39
2018-10-03T06:14:34.492Z,1013.38
2018-10-03T06:15:14.932Z,1013.41
2018-10-03T06:15:55.465Z,1013.4
2018-10-03T06:16:35.814Z,1013.44
2018-10-03T06:17:16.210Z,1013.45
2018-10-03T06:17:56.604Z,1013.44
2018-10-03T06:18:37.078Z,1013.49
2018-10-03T06:19:17.512Z,1013.5
2018-10-03T06:19:57.932Z,1013.5
2018-10-03T06:20:38.297Z,1013.51
2018-10-03T06:21:18.763Z,1013.55
2018-10-03T06:21:59.117Z,1013.54
2018-10-03T06:22:39.489Z,1013.52
2018-10-03T06:23:19.874Z,1013.59
2018-10-03T06:24:00.274Z,1013.53
2018-10-03T06:24:40.675Z,1013.6
2018-10-03T06:25:21.126Z,1013.65
2018-10-03T06:26:01.504Z,1013.62
2018-10-03T06:26:41.976Z,1013.63
2018-10-03T06:27:22.364Z,1013.62
2018-10-03T06:28:02.854Z,1013.63
2018-10-03T06:28:43.198Z,1013.62
2018-10-03T06:29:23.592Z,1013.63
2018-10-03T06:30:03.952Z,1013.68
2018-10-03T06:30:44.410Z,1013.68
2018-10-03T06:31:24.748Z,1013.69
2018-10-03T06:32:05.147Z,1013.73
2018-10-03T06:32:45.583Z,1013.71
2018-10-03T06:33:26.046Z,1013.71
2018-10-03T06:34:06.434Z,1013.76
2018-10-03T06:34:46.826Z,1013.75
2018-10-03T06:35:27.238Z,1013.73
2018-10-03T06:36:07.549Z,1013.77
2018-10-03T06:36:47.962Z,1013.76
2018-10-03T06:37:28.441Z,1013.79
2018-10-03T06:38:08.778Z,1013.82
2018-10-03T06:38:49.185Z,1013.8
2018-10-03T06:39:29.690Z,1013.84
2018-10-03T06:40:10.008Z,1013.86
2018-10-03T06:40:50.397Z,1013.93
2018-10-03T06:41:30.865Z,1013.9
2018-10-03T06:42:11.208Z,1013.96
2018-10-03T06:42:51.627Z,1013.95
2018-10-03T06:43:32.106Z,1013.98
2018-10-03T06:44:12.474Z,1013.97
2018-10-03T06:44:52.900Z,1014.08
2018-10-03T06:45:33.475Z,1014.05
2018-10-03T06:46:13.732Z,1014.09
2018-10-03T06:46:54.333Z,1014.07
2018-10-03T06:47:35.375Z,1014.04
2018-10-03T06:48:15.664Z,1014.06
2018-10-03T06:48:56.068Z,1014.09
2018-10-03T06:49:36.491Z,1014.06
2018-10-03T06:50:16.866Z,1014.04
2018-10-03T06:50:57.343Z,1014.04
2018-10-03T06:51:37.729Z,1014.05
2018-10-03T06:52:18.132Z,1014.04
2018-10-03T06:52:58.611Z,1014.09
2018-10-03T06:53:39.000Z,1014.12
2018-10-03T06:54:19.479Z,1014.1
2018-10-03T06:54:59.855Z,1014.1
2018-10-03T06:55:40.235Z,1014.11
2018-10-03T06:56:20.689Z,1014.13
2018-10-03T06:57:01.192Z,1014.1
2018-10-03T06:57:41.551Z,1014.17
2018-10-03T06:58:22.141Z,1014.14
2018-10-03T06:59:02.394Z,1014.12
2018-10-03T06:59:42.971Z,1014.14
2018-10-03T07:00:23.377Z,1014.18
2018-10-03T07:01:03.794Z,1014.19
2018-10-03T07:01:44.187Z,1014.21
2018-10-03T07:02:24.577Z,1014.21
2018-10-03T07:03:04.963Z,1014.25
2018-10-03T07:03:45.407Z,1014.3
2018-10-03T07:04:25.867Z,1014.29
2018-10-03T07:05:06.263Z,1014.32
2018-10-03T07:05:46.761Z,1014.38
2018-10-03T07:06:27.172Z,1014.33
2018-10-03T07:07:07.575Z,1014.42
2018-10-03T07:07:48.024Z,1014.44
2018-10-03T07:08:28.376Z,1014.44
2018-10-03T07:09:08.790Z,1014.44
2018-10-03T07:09:49.815Z,1014.45
2018-10-03T07:10:30.268Z,1014.44
2018-10-03T07:11:10.805Z,1014.46
2018-10-03T07:11:51.157Z,1014.5
2018-10-03T07:12:31.627Z,1014.47
2018-10-03T07:13:12.709Z,1014.5
2018-10-03T07:13:53.037Z,1014.55
2018-10-03T07:14:33.471Z,1014.56
2018-10-03T07:15:13.991Z,1014.56
2018-10-03T07:15:54.438Z,1014.55
2018-10-03T07:16:34.831Z,1014.58
2018-10-03T07:17:15.168Z,1014.65
2018-10-03T07:17:55.544Z,1014.61
2018-10-03T07:18:36.106Z,1014.63
2018-10-03T07:19:16.548Z,1014.65
2018-10-03T07:19:57.042Z,1014.66
2018-10-03T07:22:25.248Z,1014.67
2018-10-03T07:23:20.792Z,1014.73
2018-10-03T07:24:04.357Z,1014.72
2018-10-03T07:24:44.691Z,1014.65
2018-10-03T07:25:25.052Z,1014.67
2018-10-03T07:26:05.701Z,1014.67
2018-10-03T07:26:46.047Z,1014.69
2018-10-03T07:27:26.438Z,1014.72
2018-10-03T07:28:07.819Z,1014.68
2018-10-03T07:28:50.910Z,1014.64
2018-10-03T07:29:31.260Z,1014.7
2018-10-03T07:30:11.728Z,1014.75
2018-10-03T07:30:52.130Z,1014.72
2018-10-03T07:31:32.971Z,1014.77
2018-10-03T07:32:13.339Z,1014.78
2018-10-03T07:32:53.467Z,1014.77
2018-10-03T07:33:33.991Z,1014.75
2018-10-03T07:34:14.296Z,1014.77
2018-10-03T07:34:54.710Z,1014.78
2018-10-03T07:35:36.034Z,1014.79
2018-10-03T07:36:16.881Z,1014.83
2018-10-03T07:36:57.136Z,1014.9
2018-10-03T07:37:37.559Z,1014.89
2018-10-03T07:38:18.017Z,1014.87
2018-10-03T07:38:58.368Z,1014.9
2018-10-03T07:39:39.116Z,1014.92
2018-10-03T07:40:19.866Z,1014.93
2018-10-03T07:41:00.333Z,1014.93
2018-10-03T07:41:40.745Z,1014.87
2018-10-03T07:42:21.388Z,1014.98
2018-10-03T07:43:01.867Z,1014.9
2018-10-03T07:43:42.272Z,1014.89
2018-10-03T07:44:22.715Z,1014.85
2018-10-03T07:45:03.147Z,1014.96
2018-10-03T07:45:43.784Z,1015.01
2018-10-03T07:46:24.277Z,1014.98
2018-10-03T07:47:04.635Z,1015.01
2018-10-03T07:47:45.109Z,1015.05
2018-10-03T07:48:25.559Z,1015.03
2018-10-03T07:49:06.100Z,1015.07
2018-10-03T07:49:46.454Z,1015.06
2018-10-03T07:50:26.837Z,1015.06
2018-10-03T07:51:07.255Z,1015.02
2018-10-03T07:51:47.707Z,1015.08
2018-10-03T07:52:28.171Z,1015.2
2018-10-03T07:53:08.583Z,1015.18
2018-10-03T07:53:49.025Z,1015.2
2018-10-03T07:54:29.642Z,1015.16
2018-10-03T07:55:10.584Z,1015.13
2018-10-03T07:55:51.015Z,1015.2
2018-10-03T07:56:31.391Z,1015.24
2018-10-03T07:57:12.036Z,1015.19
2018-10-03T07:57:52.498Z,1015.17
2018-10-03T07:58:33.177Z,1015.19
2018-10-03T07:59:13.931Z,1015.19
2018-10-03T07:59:54.281Z,1015.2
2018-10-03T08:00:34.633Z,1015.2
2018-10-03T08:01:15.058Z,1015.19
2018-10-03T08:01:56.148Z,1015.16
2018-10-03T08:03:52.771Z,1015.21
2018-10-03T08:04:33.157Z,1015.23
2018-10-03T08:05:13.474Z,1015.22
2018-10-03T08:07:09.002Z,1015.26
2018-10-03T08:09:37.186Z,1015.25
2018-10-03T08:10:17.621Z,1015.26
2018-10-03T08:10:58.065Z,1015.26
2018-10-03T08:11:38.499Z,1015.29
2018-10-03T08:12:18.888Z,1015.31
2018-10-03T08:12:59.442Z,1015.33
2018-10-03T08:13:39.741Z,1015.35
2018-10-03T08:14:20.230Z,1015.35
2018-10-03T08:15:00.595Z,1015.33
2018-10-03T08:15:40.999Z,1015.4
2018-10-03T08:16:21.407Z,1015.36
2018-10-03T08:17:01.801Z,1015.47
2018-10-03T08:17:42.187Z,1015.43
2018-10-03T08:18:22.596Z,1015.44
2018-10-03T08:19:03.014Z,1015.47
2018-10-03T08:19:43.388Z,1015.51
2018-10-03T08:20:23.977Z,1015.53
2018-10-03T08:21:04.346Z,1015.53
2018-10-03T08:21:44.753Z,1015.51
2018-10-03T08:22:25.706Z,1015.54
2018-10-03T08:23:06.259Z,1015.52
2018-10-03T08:23:46.667Z,1015.55
2018-10-03T08:24:27.121Z,1015.61
2018-10-03T08:25:07.502Z,1015.61
2018-10-03T08:25:48.301Z,1015.65
2018-10-03T08:26:28.437Z,1015.65
2018-10-03T08:27:09.608Z,1015.71
2018-10-03T08:27:50.040Z,1015.68
2018-10-03T08:28:30.445Z,1015.72
2018-10-03T08:29:10.954Z,1015.72
2018-10-03T08:29:51.436Z,1015.71
2018-10-03T08:30:31.820Z,1015.71
2018-10-03T08:31:12.187Z,1015.7
2018-10-03T08:31:52.690Z,1015.72
2018-10-03T08:32:33.119Z,1015.74
2018-10-03T08:33:13.556Z,1015.73
2018-10-03T08:33:53.948Z,1015.76
2018-10-03T08:34:34.419Z,1015.68
2018-10-03T08:35:14.748Z,1015.7
2018-10-03T08:35:55.198Z,1015.71
2018-10-03T08:36:35.625Z,1015.79
2018-10-03T08:37:16.040Z,1015.8
2018-10-03T08:37:56.449Z,1015.79
2018-10-03T08:38:37.052Z,1015.82
2018-10-03T08:39:17.828Z,1015.8
2018-10-03T08:39:58.265Z,1015.78
2018-10-03T08:40:38.714Z,1015.81
2018-10-03T08:41:19.074Z,1015.8
2018-10-03T08:41:59.689Z,1015.81
2018-10-03T08:42:40.410Z,1015.83
2018-10-03T08:43:21.119Z,1015.82
2018-10-03T08:44:01.423Z,1015.85
2018-10-03T08:46:44.018Z,1015.84
2018-10-03T08:47:24.215Z,1015.85
2018-10-03T08:48:07.397Z,1015.84
2018-10-03T08:48:50.597Z,1015.89
2018-10-03T08:49:30.275Z,1015.88
2018-10-03T08:50:11.763Z,1015.91
2018-10-03T08:50:53.259Z,1015.91
2018-10-03T08:51:34.961Z,1015.93
2018-10-03T08:52:15.614Z,1015.97
2018-10-03T08:52:56.193Z,1015.92
2018-10-03T08:53:36.546Z,1016.01
2018-10-03T08:54:16.995Z,1015.95
2018-10-03T08:54:58.221Z,1015.95
2018-10-03T08:55:39.464Z,1016
2018-10-03T08:56:20.300Z,1015.99
2018-10-03T08:57:00.723Z,1015.99
2018-10-03T08:57:41.173Z,1016.01
2018-10-03T08:58:22.753Z,1016.02
2018-10-03T08:59:03.677Z,1016.01
2018-10-03T08:59:44.172Z,1016.01
2018-10-03T09:00:24.756Z,1016.01
2018-10-03T09:01:05.370Z,1015.96
2018-10-03T09:01:45.799Z,1015.96
2018-10-03T09:02:26.485Z,1015.93
2018-10-03T09:03:07.430Z,1015.93
2018-10-03T09:03:48.328Z,1015.98
2018-10-03T09:04:29.515Z,1015.93
2018-10-03T09:05:11.065Z,1015.95
2018-10-03T09:05:51.220Z,1015.98
2018-10-03T09:06:32.650Z,1016.01
2018-10-03T09:07:12.568Z,1016
2018-10-03T09:07:54.062Z,1016.05
2018-10-03T09:08:35.154Z,1016.02